Airfield :
LOGIN :

Register | Disclaimer

   EN    FR    IT 

 










Legend :    VFR   Marginal VFR   IFR   Intensive IFR   Very Intensive IFR
Visi :
Ceiling :
>= 8 km
>= 3000ft
5 to 8 km
1000 to 3000 ft
1500m to 5 km
500 to 1000 ft
800 to 1500m
200 to 500 ft
< 800m
< 200 ft
Symbols :   Thunderstorms  Fog  Heavy snow  Heavy precipitations  Wind > 20 kt
SIGMETs :     Misc.  Thunderstorms  Icing  Turbulence  Mountain Waves  Volcanic Ashes






- Airport Elevation : 436 ft
- IATA code : ANG


LFBU - Angoulême Brie Champniers

CURRENT METAR :
  • 021300Z AUTO 03005KT 350V060 9999 // OVC029 06/02 Q1017

EXPIRED METARs :
  • 021230Z AUTO 00000KT 9999 OVC025 06/02 Q1017 TEMPO OVC010 BECMG 03010KT
  • 021200Z AUTO 05005KT 9999 OVC024 06/01 Q1018 TEMPO OVC010
  • 021130Z AUTO 04004KT 9999 OVC023 05/02 Q//// NOSIG
  • 021100Z AUTO 05006KT 9999 OVC022 05/01 Q//// TEMPO BKN010
  • 021030Z AUTO 04008KT 010V070 9999 OVC023 05/01 Q//// TEMPO BKN010
  • 021000Z AUTO 05008KT 9999 OVC023 05/01 Q//// TEMPO BKN010

TAF TAF LFBU
Valid from the 02 at 12:00 until the 03 at 12:00 UTC


021100Z 0212/0312 03010KT 9999 OVC020
PROB30
TEMPO 0212/0216 OVC010
TEMPO 0223/0309 3000 RADZ OVC005



MET'MAP, your aeronautical weather chart ! - Copyright ORBIFLY December 2007 - Disclaimer

ORBIFLY MET'MAP TEAM :

Programming & Development : Alexandra Zaïnal
Original concept : Baudouin d'Aumeries
Technical & hardware support : Manuel Goepfert
Assistance : Marc-Olivier Méhu




SOURCES & CREDITS :

   NOAA